Aérodrome :
LOGIN :

S'inscrire | Disclaimer

   EN    FR    IT 

 










Légende :    VFR   VFR Marginal   IFR   IFR Intensif   IFR Très Intensif
Visi : 
Plafond : 
>= 8 km
>= 3000ft
5 à 8 km
1000 à 3000 ft
1500m à 5 km
500 à 1000 ft
800 à 1500m
200 à 500 ft
< 800m
< 200 ft
Symboles :   Orages  Brouillard  Fortes neiges  Fortes précipitations  Vent > 20 kt
SIGMETs :   Divers  Orages  Givrage  Turbulence  Onde Orograph.  Cendres Volcan.






- Altitude de l'aérodrome : 23 ft
- Code IATA : XFW


EDHI - Hamburg Finkenwerder

DERNIER METAR :
  • 271150Z 22009KT 9999 FEW019 BKN022 05/01 Q0999

METARs EXPIRÉS :
  • 271120Z 22009KT 9999 SCT018 05/01 Q0999
  • 271050Z 22009KT 180V240 9999 SCT017 05/01 Q1000
  • 271020Z 23010KT 9999 SCT015 05/02 Q1000
  • 270950Z 23010KT 9999 BKN014 04/01 Q1000
  • 270920Z 24011KT 9999 BKN013 04/01 Q1000

TAF TAF EDHI
Valide du 27 à 12h jusqu'au 27 à 21h UTC


271100Z 2712/2721 23010KT 9999 SCT025
BECMG 2715/2718 20004KT



MET'MAP, la Météo Aéronautique d'un coup d'oeil ! - Copyright ORBIFLY Décembre 2007 - Disclaimer

ORBIFLY MET'MAP TEAM :

Programmation & Développement : Alexandra Zaïnal
Sur une idée originale de : Baudouin d'Aumeries
Assistance à la programmation : Marc-Olivier Méhu
Soutien technique & logistique : Manuel Goepfert

Contact : metmap@orbifly.com




SOURCES & CREDITS :

   NOAA